createdAt,value
2019-03-10T00:00:21.655Z,70.60
2019-03-10T00:02:50.362Z,70.50
2019-03-10T00:05:18.998Z,71.20
2019-03-10T00:07:47.667Z,72.70
2019-03-10T00:10:16.365Z,72.40
2019-03-10T00:12:45.117Z,72.20
2019-03-10T00:15:13.836Z,71.80
2019-03-10T00:17:42.497Z,71.60
2019-03-10T00:20:11.262Z,71.80
2019-03-10T00:22:40.727Z,72.10
2019-03-10T00:25:10.502Z,72.60
2019-03-10T00:27:39.356Z,72.60
2019-03-10T00:30:14.025Z,72.40
2019-03-10T00:32:42.766Z,72.10
2019-03-10T00:35:11.479Z,72.20
2019-03-10T00:37:40.140Z,72.30
2019-03-10T00:40:45.063Z,72.40
2019-03-10T00:43:49.993Z,72.10
2019-03-10T00:46:33.677Z,72.60
2019-03-10T00:49:26.458Z,72.40
2019-03-10T00:52:13.682Z,70.80
2019-03-10T00:54:42.372Z,71.50
2019-03-10T00:57:11.043Z,70.30
2019-03-10T00:59:39.725Z,70.70
2019-03-10T01:02:08.382Z,71.80
2019-03-10T01:04:37.050Z,71.70
2019-03-10T01:07:05.742Z,71.50
2019-03-10T01:09:34.392Z,70.90
2019-03-10T01:12:03.109Z,70.00
2019-03-10T01:14:31.763Z,69.90
2019-03-10T01:17:00.419Z,70.00
2019-03-10T01:19:29.108Z,70.40
2019-03-10T01:21:57.742Z,70.70
2019-03-10T01:24:26.417Z,71.00
2019-03-10T01:26:55.054Z,71.60
2019-03-10T01:29:23.773Z,71.80
2019-03-10T01:32:14.692Z,72.00
2019-03-10T01:34:55.452Z,71.80
2019-03-10T01:37:24.099Z,71.70
2019-03-10T01:39:52.760Z,71.90
2019-03-10T01:42:21.444Z,72.50
2019-03-10T01:44:50.081Z,72.60
2019-03-10T01:47:18.720Z,72.20
2019-03-10T01:49:47.408Z,72.90
2019-03-10T01:52:16.054Z,73.60
2019-03-10T01:54:44.764Z,74.00
2019-03-10T01:57:13.426Z,74.50
2019-03-10T01:59:42.079Z,74.10
2019-03-10T02:02:10.766Z,74.30
2019-03-10T02:04:39.404Z,74.50
2019-03-10T02:07:08.057Z,74.70
2019-03-10T02:09:36.725Z,74.70
2019-03-10T02:12:05.365Z,74.80
2019-03-10T02:14:34.077Z,75.40
2019-03-10T02:17:02.728Z,75.50
2019-03-10T02:19:31.382Z,75.30
2019-03-10T02:22:00.065Z,75.00
2019-03-10T02:24:28.733Z,74.90
2019-03-10T02:26:57.410Z,74.10
2019-03-10T02:29:26.063Z,74.00
2019-03-10T02:31:54.713Z,73.80
2019-03-10T02:34:23.383Z,73.70
2019-03-10T02:36:52.046Z,73.60
2019-03-10T02:39:20.760Z,73.60
2019-03-10T02:41:49.400Z,74.20
2019-03-10T02:44:18.050Z,74.00
2019-03-10T02:46:46.718Z,73.70
2019-03-10T02:49:15.370Z,74.00
2019-03-10T02:51:44.062Z,74.30
2019-03-10T02:54:12.711Z,74.20
2019-03-10T02:56:41.409Z,74.00
2019-03-10T02:59:10.052Z,74.10
2019-03-10T03:01:38.717Z,73.60
2019-03-10T03:04:07.403Z,74.10
2019-03-10T03:06:36.031Z,74.40
2019-03-10T03:09:06.138Z,74.60
2019-03-10T03:11:34.797Z,74.70
2019-03-10T03:14:03.441Z,74.80
2019-03-10T03:16:32.132Z,75.20
2019-03-10T03:19:00.786Z,75.70
2019-03-10T03:21:42.182Z,75.90
2019-03-10T03:23:59.782Z,76.60
2019-03-10T03:26:28.438Z,76.40
2019-03-10T03:28:57.127Z,76.40
2019-03-10T03:31:25.776Z,76.70
2019-03-10T03:33:54.494Z,77.40
2019-03-10T03:36:26.396Z,77.90
2019-03-10T03:38:58.198Z,78.00
2019-03-10T03:41:27.238Z,77.80
2019-03-10T03:43:55.896Z,77.70
2019-03-10T03:46:24.584Z,77.30
2019-03-10T03:48:53.218Z,77.60
2019-03-10T03:51:21.927Z,77.60
2019-03-10T03:53:50.565Z,77.80
2019-03-10T03:56:19.215Z,77.70
2019-03-10T03:58:47.908Z,77.40
2019-03-10T04:01:20.864Z,77.20
2019-03-10T04:03:49.543Z,77.30
2019-03-10T04:06:18.192Z,77.80
2019-03-10T04:08:46.829Z,78.10
2019-03-10T04:11:15.515Z,77.70
2019-03-10T04:13:44.147Z,77.80
2019-03-10T04:16:12.869Z,77.90
2019-03-10T04:18:41.513Z,77.70
2019-03-10T04:21:10.163Z,77.90
2019-03-10T04:23:38.859Z,78.70
2019-03-10T04:26:07.496Z,77.50
2019-03-10T04:28:36.212Z,77.60
2019-03-10T04:31:04.859Z,77.30
2019-03-10T04:33:33.507Z,77.40
2019-03-10T04:36:02.189Z,77.10
2019-03-10T04:38:30.850Z,76.70
2019-03-10T04:40:59.564Z,76.80
2019-03-10T04:43:28.219Z,76.40
2019-03-10T04:45:56.852Z,76.50
2019-03-10T04:48:25.532Z,77.20
2019-03-10T04:50:54.182Z,77.00
2019-03-10T04:53:22.889Z,77.10
2019-03-10T04:56:08.151Z,77.60
2019-03-10T04:58:38.428Z,77.70
2019-03-10T05:01:07.080Z,77.90
2019-03-10T05:03:35.737Z,77.90
2019-03-10T05:06:04.423Z,77.60
2019-03-10T05:08:33.056Z,77.70
2019-03-10T05:11:01.734Z,77.40
2019-03-10T05:13:30.379Z,77.00
2019-03-10T05:15:59.080Z,77.10
2019-03-10T05:18:27.709Z,77.20
2019-03-10T05:20:56.364Z,77.40
2019-03-10T05:23:41.049Z,77.20
2019-03-10T05:26:09.704Z,77.20
2019-03-10T05:28:43.424Z,77.70
2019-03-10T05:31:12.071Z,78.00
2019-03-10T05:33:40.736Z,78.00
2019-03-10T05:36:09.415Z,77.70
2019-03-10T05:38:38.062Z,77.70
2019-03-10T05:41:06.754Z,78.10
2019-03-10T05:43:35.392Z,78.30
2019-03-10T05:46:04.043Z,78.80
2019-03-10T05:48:32.871Z,78.90
2019-03-10T05:51:01.529Z,79.10
2019-03-10T05:53:30.226Z,79.10
2019-03-10T05:55:58.874Z,79.10
2019-03-10T05:58:27.537Z,79.00
2019-03-10T06:00:56.202Z,78.60
2019-03-10T06:03:24.855Z,78.90
2019-03-10T06:05:53.542Z,79.10
2019-03-10T06:08:22.205Z,79.30
2019-03-10T06:10:50.852Z,79.50
2019-03-10T06:13:19.527Z,79.20
2019-03-10T06:15:48.180Z,79.30
2019-03-10T06:18:16.861Z,79.10
2019-03-10T06:20:45.516Z,79.30
2019-03-10T06:23:14.161Z,79.10
2019-03-10T06:25:42.845Z,79.00
2019-03-10T06:28:11.493Z,78.40
2019-03-10T06:30:40.198Z,77.40
2019-03-10T06:33:08.843Z,75.60
2019-03-10T06:35:37.485Z,72.70
2019-03-10T06:38:06.192Z,69.70
2019-03-10T06:40:34.842Z,66.30
2019-03-10T06:43:03.526Z,63.30
2019-03-10T06:45:32.192Z,61.70
2019-03-10T06:48:00.839Z,60.50
2019-03-10T06:50:29.824Z,60.20
2019-03-10T06:52:58.465Z,58.80
2019-03-10T06:55:27.156Z,58.10
2019-03-10T06:57:55.819Z,58.00
2019-03-10T07:00:24.464Z,58.50
2019-03-10T07:02:53.143Z,55.80
2019-03-10T07:05:21.811Z,53.10
2019-03-10T07:07:50.513Z,52.40
2019-03-10T07:10:19.199Z,50.60
2019-03-10T07:12:47.846Z,48.90
2019-03-10T07:15:16.541Z,47.50
2019-03-10T07:17:45.195Z,47.50
2019-03-10T07:20:20.691Z,47.90
2019-03-10T07:22:49.354Z,48.90
2019-03-10T07:25:18.079Z,49.40
2019-03-10T07:27:56.827Z,50.00
2019-03-10T07:30:45.187Z,50.40
2019-03-10T07:33:15.411Z,49.80
2019-03-10T07:35:51.912Z,49.40
2019-03-10T07:38:34.092Z,49.10
2019-03-10T07:41:10.368Z,48.30
2019-03-10T07:43:43.317Z,46.10
2019-03-10T07:46:16.563Z,44.00
2019-03-10T07:48:59.028Z,41.90
2019-03-10T07:51:45.394Z,39.90
2019-03-10T07:54:30.615Z,39.00
2019-03-10T07:57:18.894Z,39.20
2019-03-10T07:59:58.135Z,38.70
2019-03-10T08:02:34.120Z,36.90
2019-03-10T08:05:22.413Z,35.60
2019-03-10T08:07:52.675Z,34.80
2019-03-10T08:10:29.074Z,35.00
2019-03-10T08:13:17.490Z,35.50
2019-03-10T08:16:03.838Z,38.00
2019-03-10T08:18:34.095Z,40.70
2019-03-10T08:21:13.246Z,44.20
2019-03-10T08:23:43.522Z,47.20
2019-03-10T08:26:16.228Z,49.90
2019-03-10T08:28:55.308Z,53.10
2019-03-10T08:31:28.242Z,55.50
2019-03-10T08:34:14.671Z,56.80
2019-03-10T08:37:01.068Z,56.20
2019-03-10T08:39:47.763Z,56.40
2019-03-10T08:42:20.554Z,53.70
2019-03-10T08:44:49.900Z,48.90
2019-03-10T08:47:26.360Z,45.10
2019-03-10T08:50:08.605Z,40.30
2019-03-10T08:52:38.839Z,37.00
2019-03-10T08:55:13.181Z,33.80
2019-03-10T08:57:43.412Z,33.60
2019-03-10T09:00:17.816Z,31.80
2019-03-10T09:02:56.783Z,31.20
2019-03-10T09:05:39.292Z,30.60
2019-03-10T09:08:24.824Z,31.00
2019-03-10T09:10:55.097Z,30.90
2019-03-10T09:13:27.941Z,33.00
2019-03-10T09:15:58.217Z,35.70
2019-03-10T09:18:28.426Z,39.20
2019-03-10T09:21:17.136Z,42.70
2019-03-10T09:23:56.328Z,45.80
2019-03-10T09:26:41.659Z,47.70
2019-03-10T09:29:17.449Z,48.50
2019-03-10T09:31:47.718Z,49.90
2019-03-10T09:34:20.650Z,50.00
2019-03-10T09:36:56.767Z,49.70
2019-03-10T09:39:35.908Z,49.30
2019-03-10T09:42:22.697Z,50.10
2019-03-10T09:44:52.909Z,51.60
2019-03-10T09:47:23.145Z,51.20
2019-03-10T09:49:53.407Z,48.80
2019-03-10T09:52:41.698Z,47.20
2019-03-10T09:55:14.688Z,46.80
2019-03-10T09:57:56.752Z,43.10
2019-03-10T10:00:29.935Z,39.80
2019-03-10T10:03:05.641Z,36.60
2019-03-10T10:05:48.117Z,35.10
2019-03-10T10:08:21.065Z,34.80
2019-03-10T10:10:57.308Z,36.90
2019-03-10T10:13:33.260Z,41.00
2019-03-10T10:16:21.569Z,42.50
2019-03-10T10:18:57.787Z,41.90
2019-03-10T10:21:31.035Z,42.50
2019-03-10T10:24:10.118Z,43.00
2019-03-10T10:26:49.128Z,44.10
2019-03-10T10:29:37.380Z,45.70
2019-03-10T10:32:07.646Z,46.50
2019-03-10T10:34:37.876Z,46.50
2019-03-10T10:37:08.081Z,46.30
2019-03-10T10:39:54.662Z,45.00
2019-03-10T10:42:27.859Z,42.60
2019-03-10T10:45:14.238Z,41.30
2019-03-10T10:47:59.404Z,40.50
2019-03-10T10:50:32.401Z,38.30
2019-03-10T10:53:02.630Z,34.60
2019-03-10T10:55:33.367Z,33.30
2019-03-10T10:58:19.850Z,33.70
2019-03-10T11:00:50.081Z,33.40
2019-03-10T11:03:29.186Z,31.30
2019-03-10T11:06:07.910Z,30.40
2019-03-10T11:08:38.137Z,30.50
2019-03-10T11:11:26.266Z,31.00
2019-03-10T11:14:05.478Z,30.40
2019-03-10T11:16:41.518Z,29.90
2019-03-10T11:19:11.871Z,29.90
2019-03-10T11:21:58.584Z,29.30
2019-03-10T11:24:34.850Z,31.30
2019-03-10T11:27:11.097Z,29.50
2019-03-10T11:29:47.099Z,29.70
2019-03-10T11:32:17.305Z,29.90
2019-03-10T11:35:02.823Z,30.60
2019-03-10T11:37:33.039Z,30.90
2019-03-10T11:40:19.906Z,31.30
2019-03-10T11:43:01.794Z,33.20
2019-03-10T11:45:40.928Z,34.30
2019-03-10T11:48:17.093Z,34.90
2019-03-10T11:51:05.467Z,33.90
2019-03-10T11:53:38.594Z,33.80
2019-03-10T11:56:11.664Z,32.60
2019-03-10T11:58:41.870Z,32.80
2019-03-10T12:01:20.904Z,34.10
2019-03-10T12:03:51.115Z,34.40
2019-03-10T12:06:21.354Z,37.00
2019-03-10T12:08:54.537Z,39.70
2019-03-10T12:11:23.183Z,41.70
2019-03-10T12:13:51.881Z,43.80
2019-03-10T12:16:20.531Z,45.40
2019-03-10T12:18:49.187Z,45.90
2019-03-10T12:21:17.858Z,46.90
2019-03-10T12:23:46.513Z,48.00
2019-03-10T12:26:15.235Z,48.60
2019-03-10T12:28:43.887Z,49.00
2019-03-10T12:31:12.551Z,48.60
2019-03-10T12:33:41.237Z,48.80
2019-03-10T12:36:09.892Z,49.30
2019-03-10T12:38:38.595Z,49.20
2019-03-10T12:41:07.248Z,49.50
2019-03-10T12:43:35.910Z,49.10
2019-03-10T12:46:04.609Z,49.50
2019-03-10T12:48:33.264Z,50.50
2019-03-10T12:51:01.971Z,51.10
2019-03-10T12:53:30.630Z,51.20
2019-03-10T12:55:59.288Z,51.50
2019-03-10T12:58:27.994Z,51.50
2019-03-10T13:01:05.626Z,52.30
2019-03-10T13:03:27.010Z,52.20
2019-03-10T13:05:55.634Z,52.40
2019-03-10T13:08:24.300Z,52.00
2019-03-10T13:10:52.973Z,52.50
2019-03-10T13:13:21.634Z,52.40
2019-03-10T13:15:50.319Z,52.60
2019-03-10T13:18:18.965Z,52.60
2019-03-10T13:20:47.655Z,52.10
2019-03-10T13:23:16.299Z,53.00
2019-03-10T13:25:45.004Z,52.70
2019-03-10T13:28:13.655Z,52.60
2019-03-10T13:30:42.308Z,52.60
2019-03-10T13:33:11.003Z,52.90
2019-03-10T13:35:39.663Z,52.70
2019-03-10T13:38:10.561Z,52.80
2019-03-10T13:40:38.671Z,52.80
2019-03-10T13:43:07.323Z,52.40
2019-03-10T13:45:36.038Z,52.80
2019-03-10T13:48:04.660Z,53.30
2019-03-10T13:50:33.360Z,52.80
2019-03-10T13:53:02.016Z,53.80
2019-03-10T13:55:30.652Z,54.10
2019-03-10T13:57:59.339Z,54.30
2019-03-10T14:00:28.004Z,53.90
2019-03-10T14:02:56.729Z,53.90
2019-03-10T14:05:25.383Z,53.30
2019-03-10T14:07:54.019Z,53.00
2019-03-10T14:10:22.699Z,52.80
2019-03-10T14:12:51.371Z,53.50
2019-03-10T14:15:20.061Z,53.40
2019-03-10T14:17:48.716Z,52.60
2019-03-10T14:20:17.949Z,52.90
2019-03-10T14:22:46.649Z,52.60
2019-03-10T14:25:16.867Z,53.00
2019-03-10T14:27:45.578Z,53.00
2019-03-10T14:30:19.226Z,52.90
2019-03-10T14:32:47.871Z,52.60
2019-03-10T14:35:16.560Z,52.50
2019-03-10T14:37:45.208Z,52.90
2019-03-10T14:40:19.060Z,52.00
2019-03-10T14:42:47.701Z,51.30
2019-03-10T14:45:17.662Z,51.00
2019-03-10T14:47:46.344Z,50.90
2019-03-10T14:50:18.682Z,51.20
2019-03-10T14:52:47.419Z,51.30
2019-03-10T14:55:18.332Z,51.20
2019-03-10T14:57:46.980Z,51.80
2019-03-10T15:00:18.794Z,51.50
2019-03-10T15:02:47.440Z,52.10
2019-03-10T15:05:16.134Z,51.70
2019-03-10T15:07:44.776Z,51.50
2019-03-10T15:10:14.619Z,51.70
2019-03-10T15:12:43.597Z,51.90
2019-03-10T15:15:22.715Z,51.80
2019-03-10T15:17:48.599Z,51.50
2019-03-10T15:20:17.924Z,51.70
2019-03-10T15:22:46.586Z,51.80
2019-03-10T15:25:25.189Z,51.00
2019-03-10T15:27:53.641Z,51.70
2019-03-10T15:30:24.077Z,51.90
2019-03-10T15:32:52.754Z,52.60
2019-03-10T15:35:21.463Z,53.20
2019-03-10T15:37:50.108Z,53.50
2019-03-10T15:40:19.506Z,53.90
2019-03-10T15:42:48.137Z,54.50
2019-03-10T15:45:19.114Z,54.50
2019-03-10T15:47:47.767Z,54.50
2019-03-10T15:50:22.523Z,55.50
2019-03-10T15:52:51.166Z,55.70
2019-03-10T15:55:19.824Z,55.70
2019-03-10T15:57:50.458Z,55.80
2019-03-10T16:00:26.436Z,55.90
2019-03-10T16:02:55.153Z,56.20
2019-03-10T16:05:23.834Z,56.60
2019-03-10T16:07:52.564Z,56.90
2019-03-10T16:10:21.203Z,57.30
2019-03-10T16:12:49.886Z,57.60
2019-03-10T16:15:31.434Z,57.90
2019-03-10T16:18:00.117Z,57.80
2019-03-10T16:20:28.824Z,58.10
2019-03-10T16:22:57.478Z,58.70
2019-03-10T16:25:26.124Z,58.70
2019-03-10T16:27:54.794Z,59.10
2019-03-10T16:30:24.776Z,59.00
2019-03-10T16:32:53.498Z,59.40
2019-03-10T16:35:22.613Z,59.50
2019-03-10T16:37:51.458Z,60.20
2019-03-10T16:40:21.348Z,60.60
2019-03-10T16:42:49.980Z,60.60
2019-03-10T16:45:23.062Z,61.50
2019-03-10T16:47:51.754Z,62.20
2019-03-10T16:50:21.628Z,63.00
2019-03-10T16:52:50.279Z,63.20
2019-03-10T16:55:18.966Z,63.80
2019-03-10T16:57:49.199Z,63.10
2019-03-10T17:00:19.629Z,63.30
2019-03-10T17:02:48.713Z,63.60
2019-03-10T17:05:19.553Z,64.20
2019-03-10T17:07:48.218Z,64.20
2019-03-10T17:10:19.479Z,64.50
2019-03-10T17:12:48.228Z,64.40
2019-03-10T17:15:19.257Z,64.20
2019-03-10T17:17:47.913Z,64.80
2019-03-10T17:20:17.901Z,64.90
2019-03-10T17:22:46.565Z,65.10
2019-03-10T17:25:15.660Z,65.00
2019-03-10T17:27:44.340Z,65.40
2019-03-10T17:30:24.121Z,65.60
2019-03-10T17:32:52.816Z,66.00
2019-03-10T17:35:21.757Z,66.30
2019-03-10T17:37:50.441Z,66.30
2019-03-10T17:40:20.242Z,66.60
2019-03-10T17:42:48.949Z,66.80
2019-03-10T17:45:22.209Z,67.10
2019-03-10T17:47:50.869Z,67.40
2019-03-10T17:50:19.550Z,67.60
2019-03-10T17:52:48.903Z,67.70
2019-03-10T17:55:20.709Z,67.80
2019-03-10T17:57:49.371Z,67.70
2019-03-10T18:00:26.597Z,68.00
2019-03-10T18:02:55.245Z,68.00
2019-03-10T18:05:23.965Z,67.80
2019-03-10T18:07:52.627Z,68.00
2019-03-10T18:10:21.299Z,68.10
2019-03-10T18:12:49.986Z,68.70
2019-03-10T18:15:19.131Z,68.90
2019-03-10T18:17:47.835Z,69.00
2019-03-10T18:20:18.886Z,69.30
2019-03-10T18:22:47.568Z,69.50
2019-03-10T18:25:16.256Z,69.80
2019-03-10T18:27:44.988Z,69.90
2019-03-10T18:30:21.598Z,70.00
2019-03-10T18:32:50.309Z,70.60
2019-03-10T18:35:19.000Z,70.80
2019-03-10T18:37:47.637Z,71.20
2019-03-10T18:40:21.549Z,71.10
2019-03-10T18:42:50.195Z,71.20
2019-03-10T18:45:19.874Z,71.30
2019-03-10T18:47:48.565Z,71.50
2019-03-10T18:50:22.440Z,71.60
2019-03-10T18:52:51.082Z,71.90
2019-03-10T18:55:19.835Z,71.80
2019-03-10T18:57:48.525Z,71.60
2019-03-10T19:00:28.515Z,71.50
2019-03-10T19:02:57.212Z,71.50
2019-03-10T19:05:25.877Z,71.30
2019-03-10T19:07:54.555Z,71.30
2019-03-10T19:10:23.234Z,72.90
2019-03-10T19:12:51.873Z,72.50
2019-03-10T19:15:25.578Z,73.00
2019-03-10T19:17:54.234Z,73.40
2019-03-10T19:20:22.875Z,73.50
2019-03-10T19:22:51.574Z,73.90
2019-03-10T19:25:20.223Z,73.90
2019-03-10T19:27:48.878Z,74.20
2019-03-10T19:30:18.861Z,74.10
2019-03-10T19:32:47.540Z,73.70
2019-03-10T19:35:16.256Z,73.70
2019-03-10T19:37:44.877Z,73.90
2019-03-10T19:40:16.240Z,73.90
2019-03-10T19:42:45.084Z,74.10
2019-03-10T19:45:21.858Z,73.70
2019-03-10T19:47:50.896Z,73.90
2019-03-10T19:50:27.226Z,74.10
2019-03-10T19:52:55.758Z,74.20
2019-03-10T19:55:24.419Z,74.30
2019-03-10T19:57:53.107Z,74.70
2019-03-10T20:00:22.505Z,74.70
2019-03-10T20:02:51.196Z,74.90
2019-03-10T20:05:19.870Z,75.30
2019-03-10T20:07:48.500Z,75.50
2019-03-10T20:10:20.968Z,75.50
2019-03-10T20:12:49.611Z,75.80
2019-03-10T20:15:22.359Z,76.00
2019-03-10T20:17:51.054Z,76.10
2019-03-10T20:20:22.699Z,76.40
2019-03-10T20:22:51.376Z,76.70
2019-03-10T20:25:20.038Z,77.00
2019-03-10T20:27:48.731Z,78.10
2019-03-10T20:30:25.862Z,77.30
2019-03-10T20:32:54.494Z,77.60
2019-03-10T20:35:23.159Z,77.50
2019-03-10T20:37:51.853Z,77.90
2019-03-10T20:40:22.949Z,78.20
2019-03-10T20:42:51.667Z,78.60
2019-03-10T20:45:20.382Z,78.30
2019-03-10T20:47:49.024Z,78.80
2019-03-10T20:50:21.381Z,78.80
2019-03-10T20:52:50.045Z,79.20
2019-03-10T20:55:18.803Z,79.40
2019-03-10T20:57:47.430Z,79.40
2019-03-10T21:00:20.095Z,79.30
2019-03-10T21:02:48.826Z,79.30
2019-03-10T21:05:17.461Z,79.60
2019-03-10T21:07:46.196Z,79.40
2019-03-10T21:10:26.194Z,79.50
2019-03-10T21:12:54.918Z,78.80
2019-03-10T21:15:26.359Z,78.80
2019-03-10T21:17:54.536Z,79.20
2019-03-10T21:20:25.283Z,79.30
2019-03-10T21:22:53.958Z,79.60
2019-03-10T21:25:27.826Z,79.60
2019-03-10T21:27:56.479Z,79.30
2019-03-10T21:30:27.410Z,79.70
2019-03-10T21:32:56.084Z,80.40
2019-03-10T21:35:24.731Z,81.10
2019-03-10T21:37:53.479Z,81.40
2019-03-10T21:40:27.922Z,81.60
2019-03-10T21:42:56.566Z,81.40
2019-03-10T21:45:25.264Z,81.30
2019-03-10T21:47:53.957Z,81.10
2019-03-10T21:50:22.652Z,80.80
2019-03-10T21:52:51.304Z,81.00
2019-03-10T21:55:19.992Z,81.50
2019-03-10T21:57:48.667Z,81.70
2019-03-10T22:00:20.812Z,82.00
2019-03-10T22:02:48.769Z,82.50
2019-03-10T22:05:17.971Z,82.00
2019-03-10T22:07:46.675Z,82.00
2019-03-10T22:10:26.171Z,82.20
2019-03-10T22:12:47.140Z,82.70
2019-03-10T22:15:16.928Z,82.80
2019-03-10T22:17:45.608Z,83.00
2019-03-10T22:20:16.455Z,83.40
2019-03-10T22:22:49.304Z,83.40
2019-03-10T22:25:15.515Z,83.30
2019-03-10T22:27:45.836Z,83.80
2019-03-10T22:30:18.863Z,83.00
2019-03-10T22:32:47.557Z,83.80
2019-03-10T22:35:16.287Z,84.40
2019-03-10T22:37:44.941Z,84.10
2019-03-10T22:40:15.882Z,84.30
2019-03-10T22:42:44.559Z,84.40
2019-03-10T22:45:16.371Z,84.10
2019-03-10T22:47:45.016Z,84.00
2019-03-10T22:50:14.547Z,83.90
2019-03-10T22:52:43.279Z,83.30
2019-03-10T22:55:13.056Z,83.00
2019-03-10T22:57:41.734Z,83.00
2019-03-10T23:00:19.475Z,83.00
2019-03-10T23:02:48.530Z,82.90
2019-03-10T23:05:17.171Z,83.50
2019-03-10T23:07:45.829Z,83.70
2019-03-10T23:10:15.339Z,83.50
2019-03-10T23:12:43.992Z,83.80
2019-03-10T23:15:14.007Z,84.40
2019-03-10T23:17:42.663Z,84.00
2019-03-10T23:20:15.566Z,84.80
2019-03-10T23:22:44.272Z,84.10
2019-03-10T23:25:13.024Z,84.10
2019-03-10T23:27:41.746Z,83.70
2019-03-10T23:30:18.306Z,83.10
2019-03-10T23:32:47.069Z,82.60
2019-03-10T23:35:15.772Z,82.20
2019-03-10T23:37:44.409Z,82.20
2019-03-10T23:40:17.127Z,82.30
2019-03-10T23:42:45.801Z,82.30
2019-03-10T23:45:17.040Z,82.70
2019-03-10T23:47:45.717Z,83.00
2019-03-10T23:50:15.764Z,83.80
2019-03-10T23:52:44.438Z,84.30
2019-03-10T23:55:14.105Z,84.00
2019-03-10T23:57:42.819Z,84.60
